createdAt,value
2023-05-21T15:41:18.949Z,101362.97
2023-05-21T15:51:25.883Z,101358.81
2023-05-21T16:01:32.066Z,101356.38
2023-05-21T16:11:35.924Z,101355.84
2023-05-21T16:21:45.079Z,101350.56
2023-05-21T16:31:48.880Z,101351.94
2023-05-21T16:42:05.939Z,101351.38
2023-05-21T17:02:48.426Z,101340.56
2023-05-21T17:13:17.657Z,101342.09
2023-05-21T17:23:32.648Z,101337.75
2023-05-21T17:33:38.137Z,101338.38
2023-05-21T17:43:46.752Z,101340.00
2023-05-21T17:53:50.305Z,101342.69
2023-05-21T18:03:55.751Z,101344.88
2023-05-21T18:14:00.447Z,101345.84
2023-05-21T18:24:08.873Z,101348.00
2023-05-21T18:34:12.960Z,101350.25
2023-05-21T18:44:20.848Z,101352.38
2023-05-21T18:54:24.728Z,101353.94
2023-05-21T19:04:31.824Z,101353.97
2023-05-21T19:14:34.960Z,101352.94
2023-05-21T19:24:39.540Z,101351.06
2023-05-21T19:34:43.858Z,101346.41
2023-05-21T19:44:48.454Z,101342.00
2023-05-21T19:54:53.263Z,101338.38
2023-05-21T20:05:01.393Z,101341.03
2023-05-21T20:15:16.326Z,101335.25
2023-05-21T20:25:21.284Z,101334.75
2023-05-21T20:35:32.164Z,101335.56
2023-05-21T20:45:42.757Z,101335.41
2023-05-21T20:55:47.066Z,101337.16
2023-05-21T21:05:53.570Z,101339.59
2023-05-21T21:15:56.583Z,101341.97
2023-05-21T21:26:01.649Z,101346.75
2023-05-21T21:36:06.135Z,101350.16
2023-05-21T21:46:10.721Z,101353.22
2023-05-21T21:56:13.813Z,101353.56
2023-05-21T22:06:19.356Z,101350.72
2023-05-21T22:16:25.085Z,101353.13
2023-05-21T22:26:29.990Z,101352.00
2023-05-21T22:36:33.153Z,101351.28
2023-05-21T22:46:38.490Z,101350.81
2023-05-21T22:56:41.485Z,101351.19
2023-05-21T23:06:48.836Z,101348.00
2023-05-21T23:16:55.240Z,101353.03
2023-05-21T23:27:03.160Z,101355.06
2023-05-21T23:37:06.715Z,101359.34
2023-05-21T23:47:11.680Z,101362.69
2023-05-21T23:57:14.679Z,101363.94
